sensor_id;sensor_type;location;lat;lon;timestamp;P1;durP1;ratioP1;P2;durP2;ratioP2
44456;SDS011;30159;49.316;8.558;2023-08-20T00:00:07;5.20;;;4.90;;
44456;SDS011;30159;49.316;8.558;2023-08-20T00:02:35;5.00;;;4.60;;
44456;SDS011;30159;49.316;8.558;2023-08-20T00:05:03;5.13;;;4.73;;
44456;SDS011;30159;49.316;8.558;2023-08-20T00:07:31;4.83;;;4.43;;
44456;SDS011;30159;49.316;8.558;2023-08-20T00:09:59;4.90;;;4.40;;
44456;SDS011;30159;49.316;8.558;2023-08-20T00:12:26;4.17;;;3.87;;
44456;SDS011;30159;49.316;8.558;2023-08-20T00:14:53;4.20;;;4.00;;
44456;SDS011;30159;49.316;8.558;2023-08-20T00:17:23;3.90;;;3.70;;
44456;SDS011;30159;49.316;8.558;2023-08-20T00:19:52;3.77;;;3.57;;
44456;SDS011;30159;49.316;8.558;2023-08-20T00:22:20;4.83;;;4.53;;
44456;SDS011;30159;49.316;8.558;2023-08-20T00:24:48;4.27;;;3.73;;
44456;SDS011;30159;49.316;8.558;2023-08-20T00:27:16;4.20;;;3.90;;
44456;SDS011;30159;49.316;8.558;2023-08-20T00:29:43;4.50;;;4.20;;
44456;SDS011;30159;49.316;8.558;2023-08-20T00:32:09;4.00;;;3.70;;
44456;SDS011;30159;49.316;8.558;2023-08-20T00:34:36;4.93;;;3.63;;
44456;SDS011;30159;49.316;8.558;2023-08-20T00:37:03;4.47;;;4.17;;
44456;SDS011;30159;49.316;8.558;2023-08-20T00:39:30;3.97;;;3.67;;
44456;SDS011;30159;49.316;8.558;2023-08-20T00:41:56;4.03;;;3.83;;
44456;SDS011;30159;49.316;8.558;2023-08-20T00:44:24;4.10;;;3.80;;
44456;SDS011;30159;49.316;8.558;2023-08-20T00:46:51;4.47;;;4.17;;
44456;SDS011;30159;49.316;8.558;2023-08-20T00:49:18;4.60;;;4.20;;
44456;SDS011;30159;49.316;8.558;2023-08-20T00:51:44;3.97;;;3.67;;
44456;SDS011;30159;49.316;8.558;2023-08-20T00:54:11;4.27;;;3.43;;
44456;SDS011;30159;49.316;8.558;2023-08-20T00:56:38;4.47;;;4.17;;
44456;SDS011;30159;49.316;8.558;2023-08-20T00:59:05;5.40;;;4.10;;
44456;SDS011;30159;49.316;8.558;2023-08-20T01:01:33;5.27;;;4.90;;
44456;SDS011;30159;49.316;8.558;2023-08-20T01:04:00;4.07;;;3.67;;
44456;SDS011;30159;49.316;8.558;2023-08-20T01:06:30;3.23;;;3.03;;
44456;SDS011;30159;49.316;8.558;2023-08-20T01:09:05;4.10;;;3.80;;
44456;SDS011;30159;49.316;8.558;2023-08-20T01:11:41;4.23;;;3.90;;
44456;SDS011;30159;49.316;8.558;2023-08-20T01:14:16;3.87;;;3.57;;
44456;SDS011;30159;49.316;8.558;2023-08-20T01:16:45;3.87;;;3.47;;
44456;SDS011;30159;49.316;8.558;2023-08-20T01:19:15;4.10;;;3.80;;
44456;SDS011;30159;49.316;8.558;2023-08-20T01:21:45;3.87;;;3.57;;
44456;SDS011;30159;49.316;8.558;2023-08-20T01:24:24;7.63;;;4.20;;
44456;SDS011;30159;49.316;8.558;2023-08-20T01:27:10;4.13;;;3.93;;
44456;SDS011;30159;49.316;8.558;2023-08-20T01:29:54;3.40;;;3.10;;
44456;SDS011;30159;49.316;8.558;2023-08-20T01:32:22;4.00;;;3.70;;
44456;SDS011;30159;49.316;8.558;2023-08-20T01:34:49;4.17;;;3.50;;
44456;SDS011;30159;49.316;8.558;2023-08-20T01:37:16;4.07;;;3.77;;
44456;SDS011;30159;49.316;8.558;2023-08-20T01:39:42;3.93;;;3.73;;
44456;SDS011;30159;49.316;8.558;2023-08-20T01:42:09;4.60;;;4.20;;
44456;SDS011;30159;49.316;8.558;2023-08-20T01:44:36;5.07;;;4.73;;
44456;SDS011;30159;49.316;8.558;2023-08-20T01:47:04;4.40;;;4.00;;
44456;SDS011;30159;49.316;8.558;2023-08-20T01:49:31;4.13;;;3.80;;
44456;SDS011;30159;49.316;8.558;2023-08-20T01:51:58;4.97;;;4.43;;
44456;SDS011;30159;49.316;8.558;2023-08-20T01:54:25;4.40;;;4.00;;
44456;SDS011;30159;49.316;8.558;2023-08-20T01:56:51;3.93;;;3.73;;
44456;SDS011;30159;49.316;8.558;2023-08-20T01:59:18;5.30;;;4.30;;
44456;SDS011;30159;49.316;8.558;2023-08-20T02:01:46;3.90;;;3.70;;
44456;SDS011;30159;49.316;8.558;2023-08-20T02:04:14;4.70;;;4.13;;
44456;SDS011;30159;49.316;8.558;2023-08-20T02:06:41;4.33;;;4.00;;
44456;SDS011;30159;49.316;8.558;2023-08-20T02:09:08;5.43;;;3.30;;
44456;SDS011;30159;49.316;8.558;2023-08-20T02:11:34;4.67;;;4.37;;
44456;SDS011;30159;49.316;8.558;2023-08-20T02:14:01;4.80;;;4.30;;
44456;SDS011;30159;49.316;8.558;2023-08-20T02:16:28;4.67;;;3.60;;
44456;SDS011;30159;49.316;8.558;2023-08-20T02:18:54;4.10;;;3.80;;
44456;SDS011;30159;49.316;8.558;2023-08-20T02:21:22;4.77;;;4.47;;
44456;SDS011;30159;49.316;8.558;2023-08-20T02:23:49;5.53;;;5.13;;
44456;SDS011;30159;49.316;8.558;2023-08-20T02:26:15;5.10;;;4.70;;
44456;SDS011;30159;49.316;8.558;2023-08-20T02:28:42;5.63;;;4.87;;
44456;SDS011;30159;49.316;8.558;2023-08-20T02:31:08;4.80;;;4.43;;
44456;SDS011;30159;49.316;8.558;2023-08-20T02:33:35;4.47;;;4.03;;
44456;SDS011;30159;49.316;8.558;2023-08-20T02:36:01;5.50;;;4.90;;
44456;SDS011;30159;49.316;8.558;2023-08-20T02:38:30;5.10;;;4.80;;
44456;SDS011;30159;49.316;8.558;2023-08-20T02:40:57;5.13;;;4.63;;
44456;SDS011;30159;49.316;8.558;2023-08-20T02:43:23;4.80;;;4.50;;
44456;SDS011;30159;49.316;8.558;2023-08-20T02:45:50;6.00;;;4.80;;
44456;SDS011;30159;49.316;8.558;2023-08-20T02:48:17;5.10;;;4.70;;
44456;SDS011;30159;49.316;8.558;2023-08-20T02:50:43;5.40;;;4.97;;
44456;SDS011;30159;49.316;8.558;2023-08-20T02:53:10;4.80;;;4.50;;
44456;SDS011;30159;49.316;8.558;2023-08-20T02:55:38;6.30;;;5.60;;
44456;SDS011;30159;49.316;8.558;2023-08-20T02:58:04;5.90;;;5.40;;
44456;SDS011;30159;49.316;8.558;2023-08-20T03:00:32;4.87;;;4.63;;
44456;SDS011;30159;49.316;8.558;2023-08-20T03:02:59;4.67;;;4.37;;
44456;SDS011;30159;49.316;8.558;2023-08-20T03:05:26;4.83;;;4.43;;
44456;SDS011;30159;49.316;8.558;2023-08-20T03:07:52;4.50;;;4.13;;
44456;SDS011;30159;49.316;8.558;2023-08-20T03:10:19;5.90;;;5.50;;
44456;SDS011;30159;49.316;8.558;2023-08-20T03:12:49;6.30;;;5.70;;
44456;SDS011;30159;49.316;8.558;2023-08-20T03:15:16;7.20;;;5.83;;
44456;SDS011;30159;49.316;8.558;2023-08-20T03:17:42;5.00;;;4.70;;
44456;SDS011;30159;49.316;8.558;2023-08-20T03:20:09;5.90;;;5.40;;
44456;SDS011;30159;49.316;8.558;2023-08-20T03:22:37;5.50;;;5.13;;
44456;SDS011;30159;49.316;8.558;2023-08-20T03:25:04;4.87;;;4.43;;
44456;SDS011;30159;49.316;8.558;2023-08-20T03:27:31;7.03;;;5.40;;
44456;SDS011;30159;49.316;8.558;2023-08-20T03:29:59;5.60;;;5.30;;
44456;SDS011;30159;49.316;8.558;2023-08-20T03:32:26;6.13;;;5.63;;
44456;SDS011;30159;49.316;8.558;2023-08-20T03:34:52;5.90;;;5.50;;
44456;SDS011;30159;49.316;8.558;2023-08-20T03:37:20;5.90;;;5.40;;
44456;SDS011;30159;49.316;8.558;2023-08-20T03:39:49;5.37;;;5.07;;
44456;SDS011;30159;49.316;8.558;2023-08-20T03:42:16;6.17;;;5.13;;
44456;SDS011;30159;49.316;8.558;2023-08-20T03:44:43;5.90;;;5.20;;
44456;SDS011;30159;49.316;8.558;2023-08-20T03:47:10;5.97;;;5.47;;
44456;SDS011;30159;49.316;8.558;2023-08-20T03:49:37;6.37;;;5.77;;
44456;SDS011;30159;49.316;8.558;2023-08-20T03:52:04;5.50;;;5.10;;
44456;SDS011;30159;49.316;8.558;2023-08-20T03:54:32;6.67;;;6.03;;
44456;SDS011;30159;49.316;8.558;2023-08-20T03:56:59;5.67;;;5.17;;
44456;SDS011;30159;49.316;8.558;2023-08-20T03:59:26;5.50;;;5.13;;
44456;SDS011;30159;49.316;8.558;2023-08-20T04:01:52;5.50;;;5.10;;
44456;SDS011;30159;49.316;8.558;2023-08-20T04:04:20;7.57;;;5.40;;
44456;SDS011;30159;49.316;8.558;2023-08-20T04:06:47;4.43;;;4.23;;
44456;SDS011;30159;49.316;8.558;2023-08-20T04:09:13;5.93;;;5.43;;
44456;SDS011;30159;49.316;8.558;2023-08-20T04:11:41;5.80;;;5.20;;
44456;SDS011;30159;49.316;8.558;2023-08-20T04:14:08;5.10;;;4.70;;
44456;SDS011;30159;49.316;8.558;2023-08-20T04:16:34;5.50;;;5.00;;
44456;SDS011;30159;49.316;8.558;2023-08-20T04:19:01;5.23;;;4.87;;
44456;SDS011;30159;49.316;8.558;2023-08-20T04:21:29;6.33;;;5.00;;
44456;SDS011;30159;49.316;8.558;2023-08-20T04:23:56;5.70;;;5.30;;
44456;SDS011;30159;49.316;8.558;2023-08-20T04:26:22;8.27;;;5.73;;
44456;SDS011;30159;49.316;8.558;2023-08-20T04:28:49;6.37;;;5.87;;
44456;SDS011;30159;49.316;8.558;2023-08-20T04:31:15;5.87;;;5.47;;
44456;SDS011;30159;49.316;8.558;2023-08-20T04:33:42;5.90;;;5.50;;
44456;SDS011;30159;49.316;8.558;2023-08-20T04:36:08;5.73;;;5.33;;
44456;SDS011;30159;49.316;8.558;2023-08-20T04:38:36;7.27;;;5.33;;
44456;SDS011;30159;49.316;8.558;2023-08-20T04:41:03;6.40;;;6.00;;
44456;SDS011;30159;49.316;8.558;2023-08-20T04:43:29;5.47;;;5.07;;
44456;SDS011;30159;49.316;8.558;2023-08-20T04:45:56;6.40;;;5.80;;
44456;SDS011;30159;49.316;8.558;2023-08-20T04:48:22;5.27;;;4.87;;
44456;SDS011;30159;49.316;8.558;2023-08-20T04:50:49;6.50;;;6.03;;
44456;SDS011;30159;49.316;8.558;2023-08-20T04:53:15;5.27;;;4.87;;
44456;SDS011;30159;49.316;8.558;2023-08-20T04:55:44;6.90;;;5.50;;
44456;SDS011;30159;49.316;8.558;2023-08-20T04:58:10;6.37;;;5.80;;
44456;SDS011;30159;49.316;8.558;2023-08-20T05:00:37;6.67;;;6.03;;
44456;SDS011;30159;49.316;8.558;2023-08-20T05:03:03;5.13;;;4.80;;
44456;SDS011;30159;49.316;8.558;2023-08-20T05:05:30;7.33;;;5.20;;
44456;SDS011;30159;49.316;8.558;2023-08-20T05:07:57;4.73;;;4.43;;
44456;SDS011;30159;49.316;8.558;2023-08-20T05:10:23;5.70;;;4.90;;
44456;SDS011;30159;49.316;8.558;2023-08-20T05:12:51;5.57;;;5.17;;
44456;SDS011;30159;49.316;8.558;2023-08-20T05:15:18;5.07;;;4.77;;
44456;SDS011;30159;49.316;8.558;2023-08-20T05:17:45;5.77;;;5.27;;
44456;SDS011;30159;49.316;8.558;2023-08-20T05:20:11;5.17;;;4.80;;
44456;SDS011;30159;49.316;8.558;2023-08-20T05:22:39;5.73;;;4.97;;
44456;SDS011;30159;49.316;8.558;2023-08-20T05:25:07;5.87;;;5.43;;
44456;SDS011;30159;49.316;8.558;2023-08-20T05:27:34;5.73;;;5.33;;
44456;SDS011;30159;49.316;8.558;2023-08-20T05:30:02;5.00;;;4.60;;
44456;SDS011;30159;49.316;8.558;2023-08-20T05:32:29;5.20;;;4.90;;
44456;SDS011;30159;49.316;8.558;2023-08-20T05:34:56;5.23;;;4.73;;
44456;SDS011;30159;49.316;8.558;2023-08-20T05:37:22;5.20;;;4.70;;
44456;SDS011;30159;49.316;8.558;2023-08-20T05:39:49;5.73;;;5.23;;
44456;SDS011;30159;49.316;8.558;2023-08-20T05:42:15;4.80;;;4.40;;
44456;SDS011;30159;49.316;8.558;2023-08-20T05:44:42;5.87;;;5.37;;
44456;SDS011;30159;49.316;8.558;2023-08-20T05:47:10;5.70;;;5.30;;
44456;SDS011;30159;49.316;8.558;2023-08-20T05:49:36;5.50;;;5.10;;
44456;SDS011;30159;49.316;8.558;2023-08-20T05:52:03;4.87;;;4.40;;
44456;SDS011;30159;49.316;8.558;2023-08-20T05:54:30;5.57;;;5.10;;
44456;SDS011;30159;49.316;8.558;2023-08-20T05:56:57;6.30;;;5.43;;
44456;SDS011;30159;49.316;8.558;2023-08-20T05:59:24;4.93;;;4.63;;
44456;SDS011;30159;49.316;8.558;2023-08-20T06:01:52;5.47;;;5.07;;
44456;SDS011;30159;49.316;8.558;2023-08-20T06:04:20;5.00;;;4.70;;
44456;SDS011;30159;49.316;8.558;2023-08-20T06:06:47;5.50;;;5.00;;
44456;SDS011;30159;49.316;8.558;2023-08-20T06:09:14;5.47;;;5.03;;
44456;SDS011;30159;49.316;8.558;2023-08-20T06:11:41;5.30;;;4.83;;
44456;SDS011;30159;49.316;8.558;2023-08-20T06:14:09;5.20;;;4.80;;
44456;SDS011;30159;49.316;8.558;2023-08-20T06:16:36;8.20;;;5.80;;
44456;SDS011;30159;49.316;8.558;2023-08-20T06:19:03;5.30;;;5.00;;
44456;SDS011;30159;49.316;8.558;2023-08-20T06:21:31;5.23;;;4.80;;
44456;SDS011;30159;49.316;8.558;2023-08-20T06:23:57;5.50;;;5.00;;
44456;SDS011;30159;49.316;8.558;2023-08-20T06:26:24;6.33;;;5.80;;
44456;SDS011;30159;49.316;8.558;2023-08-20T06:28:50;4.97;;;4.67;;
44456;SDS011;30159;49.316;8.558;2023-08-20T06:31:17;5.70;;;5.30;;
44456;SDS011;30159;49.316;8.558;2023-08-20T06:33:43;6.47;;;5.97;;
44456;SDS011;30159;49.316;8.558;2023-08-20T06:36:10;5.43;;;5.00;;
44456;SDS011;30159;49.316;8.558;2023-08-20T06:38:38;5.30;;;5.00;;
44456;SDS011;30159;49.316;8.558;2023-08-20T06:41:04;5.53;;;5.13;;
44456;SDS011;30159;49.316;8.558;2023-08-20T06:43:31;5.07;;;4.77;;
44456;SDS011;30159;49.316;8.558;2023-08-20T06:45:58;5.17;;;4.87;;
44456;SDS011;30159;49.316;8.558;2023-08-20T06:48:24;4.60;;;4.20;;
44456;SDS011;30159;49.316;8.558;2023-08-20T06:50:51;5.53;;;5.13;;
44456;SDS011;30159;49.316;8.558;2023-08-20T06:53:18;5.37;;;4.90;;
44456;SDS011;30159;49.316;8.558;2023-08-20T06:55:46;5.47;;;5.13;;
44456;SDS011;30159;49.316;8.558;2023-08-20T06:58:12;5.00;;;4.70;;
44456;SDS011;30159;49.316;8.558;2023-08-20T07:00:39;5.93;;;5.53;;
44456;SDS011;30159;49.316;8.558;2023-08-20T07:03:06;11.30;;;6.43;;
44456;SDS011;30159;49.316;8.558;2023-08-20T07:05:32;4.90;;;4.60;;
44456;SDS011;30159;49.316;8.558;2023-08-20T07:07:59;4.87;;;4.57;;
44456;SDS011;30159;49.316;8.558;2023-08-20T07:10:25;5.90;;;5.40;;
44456;SDS011;30159;49.316;8.558;2023-08-20T07:12:54;5.30;;;4.90;;
44456;SDS011;30159;49.316;8.558;2023-08-20T07:15:20;5.67;;;5.37;;
44456;SDS011;30159;49.316;8.558;2023-08-20T07:17:47;6.17;;;5.70;;
44456;SDS011;30159;49.316;8.558;2023-08-20T07:20:13;6.10;;;5.70;;
44456;SDS011;30159;49.316;8.558;2023-08-20T07:22:40;5.70;;;5.30;;
44456;SDS011;30159;49.316;8.558;2023-08-20T07:25:07;5.93;;;5.50;;
44456;SDS011;30159;49.316;8.558;2023-08-20T07:27:34;6.00;;;5.53;;
44456;SDS011;30159;49.316;8.558;2023-08-20T07:30:02;6.37;;;5.90;;
44456;SDS011;30159;49.316;8.558;2023-08-20T07:32:28;6.57;;;6.17;;
44456;SDS011;30159;49.316;8.558;2023-08-20T07:34:55;5.63;;;5.23;;
44456;SDS011;30159;49.316;8.558;2023-08-20T07:37:22;6.43;;;5.93;;
44456;SDS011;30159;49.316;8.558;2023-08-20T07:39:48;6.20;;;5.80;;
44456;SDS011;30159;49.316;8.558;2023-08-20T07:42:15;5.80;;;5.40;;
44456;SDS011;30159;49.316;8.558;2023-08-20T07:44:43;5.43;;;5.03;;
44456;SDS011;30159;49.316;8.558;2023-08-20T07:47:11;5.40;;;4.93;;
44456;SDS011;30159;49.316;8.558;2023-08-20T07:49:37;5.50;;;5.20;;
44456;SDS011;30159;49.316;8.558;2023-08-20T07:52:04;5.80;;;5.40;;
44456;SDS011;30159;49.316;8.558;2023-08-20T07:54:30;5.63;;;5.20;;
44456;SDS011;30159;49.316;8.558;2023-08-20T07:56:57;5.80;;;5.40;;
44456;SDS011;30159;49.316;8.558;2023-08-20T07:59:24;6.07;;;5.67;;
44456;SDS011;30159;49.316;8.558;2023-08-20T08:01:50;6.07;;;5.40;;
44456;SDS011;30159;49.316;8.558;2023-08-20T08:04:18;8.83;;;4.97;;
44456;SDS011;30159;49.316;8.558;2023-08-20T08:06:45;5.40;;;5.00;;
44456;SDS011;30159;49.316;8.558;2023-08-20T08:09:17;5.67;;;5.27;;
44456;SDS011;30159;49.316;8.558;2023-08-20T08:11:45;5.07;;;4.77;;
44456;SDS011;30159;49.316;8.558;2023-08-20T08:14:12;5.70;;;5.13;;
44456;SDS011;30159;49.316;8.558;2023-08-20T08:16:39;5.47;;;5.03;;
44456;SDS011;30159;49.316;8.558;2023-08-20T08:19:05;5.50;;;5.10;;
44456;SDS011;30159;49.316;8.558;2023-08-20T08:21:33;6.47;;;5.87;;
44456;SDS011;30159;49.316;8.558;2023-08-20T08:24:00;5.47;;;5.07;;
44456;SDS011;30159;49.316;8.558;2023-08-20T08:26:27;4.77;;;4.27;;
44456;SDS011;30159;49.316;8.558;2023-08-20T08:28:54;7.47;;;6.57;;
44456;SDS011;30159;49.316;8.558;2023-08-20T08:31:20;5.77;;;5.47;;
44456;SDS011;30159;49.316;8.558;2023-08-20T08:33:47;6.40;;;5.90;;
44456;SDS011;30159;49.316;8.558;2023-08-20T08:36:14;5.73;;;5.40;;
44456;SDS011;30159;49.316;8.558;2023-08-20T08:38:43;5.40;;;5.00;;
44456;SDS011;30159;49.316;8.558;2023-08-20T08:41:10;6.03;;;5.60;;
44456;SDS011;30159;49.316;8.558;2023-08-20T08:43:38;5.60;;;5.30;;
44456;SDS011;30159;49.316;8.558;2023-08-20T08:46:05;5.70;;;5.20;;
44456;SDS011;30159;49.316;8.558;2023-08-20T08:48:33;5.70;;;5.20;;
44456;SDS011;30159;49.316;8.558;2023-08-20T08:51:00;8.60;;;5.00;;
44456;SDS011;30159;49.316;8.558;2023-08-20T08:53:28;5.57;;;5.10;;
44456;SDS011;30159;49.316;8.558;2023-08-20T08:55:58;6.20;;;5.40;;
44456;SDS011;30159;49.316;8.558;2023-08-20T08:58:24;5.63;;;5.20;;
44456;SDS011;30159;49.316;8.558;2023-08-20T09:00:51;5.77;;;5.47;;
44456;SDS011;30159;49.316;8.558;2023-08-20T09:03:18;4.60;;;4.30;;
44456;SDS011;30159;49.316;8.558;2023-08-20T09:05:45;6.00;;;5.50;;
44456;SDS011;30159;49.316;8.558;2023-08-20T09:08:18;5.60;;;5.10;;
44456;SDS011;30159;49.316;8.558;2023-08-20T09:10:45;5.60;;;5.20;;
44456;SDS011;30159;49.316;8.558;2023-08-20T09:13:13;5.23;;;4.97;;
44456;SDS011;30159;49.316;8.558;2023-08-20T09:15:40;6.20;;;5.70;;
44456;SDS011;30159;49.316;8.558;2023-08-20T09:18:09;5.93;;;5.53;;
44456;SDS011;30159;49.316;8.558;2023-08-20T09:20:36;6.00;;;5.70;;
44456;SDS011;30159;49.316;8.558;2023-08-20T09:23:03;5.20;;;4.90;;
44456;SDS011;30159;49.316;8.558;2023-08-20T09:25:30;5.43;;;5.13;;
44456;SDS011;30159;49.316;8.558;2023-08-20T09:27:56;6.13;;;5.63;;
44456;SDS011;30159;49.316;8.558;2023-08-20T09:30:24;7.00;;;6.20;;
44456;SDS011;30159;49.316;8.558;2023-08-20T09:33:02;5.90;;;5.50;;
44456;SDS011;30159;49.316;8.558;2023-08-20T09:35:29;6.23;;;5.73;;
44456;SDS011;30159;49.316;8.558;2023-08-20T09:37:58;5.73;;;5.33;;
44456;SDS011;30159;49.316;8.558;2023-08-20T09:40:25;6.13;;;5.63;;
44456;SDS011;30159;49.316;8.558;2023-08-20T09:42:53;5.47;;;5.17;;
44456;SDS011;30159;49.316;8.558;2023-08-20T09:45:20;5.50;;;5.10;;
44456;SDS011;30159;49.316;8.558;2023-08-20T09:47:48;5.40;;;4.97;;
44456;SDS011;30159;49.316;8.558;2023-08-20T09:50:16;6.07;;;5.60;;
44456;SDS011;30159;49.316;8.558;2023-08-20T09:52:46;8.30;;;5.60;;
44456;SDS011;30159;49.316;8.558;2023-08-20T09:55:20;5.50;;;5.10;;
44456;SDS011;30159;49.316;8.558;2023-08-20T09:57:47;5.40;;;5.10;;
44456;SDS011;30159;49.316;8.558;2023-08-20T10:00:14;5.10;;;4.80;;
44456;SDS011;30159;49.316;8.558;2023-08-20T10:02:41;5.30;;;4.90;;
44456;SDS011;30159;49.316;8.558;2023-08-20T10:05:10;4.80;;;4.50;;
44456;SDS011;30159;49.316;8.558;2023-08-20T10:07:38;5.80;;;5.50;;
44456;SDS011;30159;49.316;8.558;2023-08-20T10:10:05;5.33;;;4.87;;
44456;SDS011;30159;49.316;8.558;2023-08-20T10:12:33;5.07;;;4.67;;
44456;SDS011;30159;49.316;8.558;2023-08-20T10:15:01;5.53;;;5.23;;
44456;SDS011;30159;49.316;8.558;2023-08-20T10:17:28;5.43;;;5.07;;
44456;SDS011;30159;49.316;8.558;2023-08-20T10:19:57;4.80;;;4.60;;
44456;SDS011;30159;49.316;8.558;2023-08-20T10:22:33;6.60;;;6.10;;
44456;SDS011;30159;49.316;8.558;2023-08-20T10:25:01;5.20;;;4.80;;
44456;SDS011;30159;49.316;8.558;2023-08-20T10:27:33;5.07;;;4.77;;
44456;SDS011;30159;49.316;8.558;2023-08-20T10:30:01;5.10;;;4.57;;
44456;SDS011;30159;49.316;8.558;2023-08-20T10:32:45;5.10;;;4.70;;
44456;SDS011;30159;49.316;8.558;2023-08-20T10:35:14;3.80;;;3.50;;
44456;SDS011;30159;49.316;8.558;2023-08-20T10:38:06;4.53;;;3.67;;
44456;SDS011;30159;49.316;8.558;2023-08-20T10:43:28;4.90;;;4.60;;
44456;SDS011;30159;49.316;8.558;2023-08-20T10:46:14;3.90;;;3.70;;
44456;SDS011;30159;49.316;8.558;2023-08-20T10:48:41;4.63;;;4.33;;
44456;SDS011;30159;49.316;8.558;2023-08-20T10:51:10;5.33;;;4.93;;
44456;SDS011;30159;49.316;8.558;2023-08-20T10:53:39;4.73;;;4.43;;
44456;SDS011;30159;49.316;8.558;2023-08-20T10:56:07;4.37;;;4.07;;
44456;SDS011;30159;49.316;8.558;2023-08-20T10:58:34;3.67;;;3.47;;
44456;SDS011;30159;49.316;8.558;2023-08-20T11:01:14;4.00;;;3.80;;
44456;SDS011;30159;49.316;8.558;2023-08-20T11:03:42;3.60;;;3.30;;
44456;SDS011;30159;49.316;8.558;2023-08-20T11:06:09;6.37;;;3.83;;
44456;SDS011;30159;49.316;8.558;2023-08-20T11:08:36;4.23;;;3.93;;
44456;SDS011;30159;49.316;8.558;2023-08-20T11:11:05;3.47;;;3.27;;
44456;SDS011;30159;49.316;8.558;2023-08-20T11:13:33;4.20;;;3.90;;
44456;SDS011;30159;49.316;8.558;2023-08-20T11:16:01;4.07;;;3.87;;
44456;SDS011;30159;49.316;8.558;2023-08-20T11:18:30;3.60;;;3.40;;
44456;SDS011;30159;49.316;8.558;2023-08-20T11:20:57;4.30;;;4.00;;
44456;SDS011;30159;49.316;8.558;2023-08-20T11:23:24;4.07;;;3.67;;
44456;SDS011;30159;49.316;8.558;2023-08-20T11:25:53;4.27;;;4.07;;
44456;SDS011;30159;49.316;8.558;2023-08-20T11:28:19;4.07;;;3.77;;
44456;SDS011;30159;49.316;8.558;2023-08-20T11:30:46;4.20;;;4.00;;
44456;SDS011;30159;49.316;8.558;2023-08-20T11:33:13;4.57;;;4.17;;
44456;SDS011;30159;49.316;8.558;2023-08-20T11:35:40;3.63;;;3.43;;
44456;SDS011;30159;49.316;8.558;2023-08-20T11:38:07;3.23;;;3.07;;
44456;SDS011;30159;49.316;8.558;2023-08-20T11:40:36;3.50;;;3.30;;
44456;SDS011;30159;49.316;8.558;2023-08-20T11:43:04;3.97;;;3.67;;
44456;SDS011;30159;49.316;8.558;2023-08-20T11:45:31;4.00;;;3.70;;
44456;SDS011;30159;49.316;8.558;2023-08-20T11:47:58;3.67;;;3.47;;
44456;SDS011;30159;49.316;8.558;2023-08-20T11:50:25;3.47;;;3.27;;
44456;SDS011;30159;49.316;8.558;2023-08-20T11:52:52;3.60;;;3.40;;
44456;SDS011;30159;49.316;8.558;2023-08-20T11:55:23;3.60;;;3.33;;
44456;SDS011;30159;49.316;8.558;2023-08-20T11:57:50;3.60;;;3.40;;
44456;SDS011;30159;49.316;8.558;2023-08-20T12:00:25;3.33;;;3.13;;
44456;SDS011;30159;49.316;8.558;2023-08-20T12:02:53;3.67;;;3.47;;
44456;SDS011;30159;49.316;8.558;2023-08-20T12:05:20;3.97;;;3.77;;
44456;SDS011;30159;49.316;8.558;2023-08-20T12:07:54;4.30;;;4.10;;
44456;SDS011;30159;49.316;8.558;2023-08-20T12:10:22;3.43;;;3.23;;
44456;SDS011;30159;49.316;8.558;2023-08-20T12:12:51;4.60;;;4.30;;
44456;SDS011;30159;49.316;8.558;2023-08-20T12:15:18;4.77;;;4.40;;
44456;SDS011;30159;49.316;8.558;2023-08-20T12:17:55;5.00;;;4.70;;
44456;SDS011;30159;49.316;8.558;2023-08-20T12:20:26;4.20;;;4.00;;
44456;SDS011;30159;49.316;8.558;2023-08-20T12:22:55;4.80;;;4.40;;
44456;SDS011;30159;49.316;8.558;2023-08-20T12:25:23;4.20;;;4.00;;
44456;SDS011;30159;49.316;8.558;2023-08-20T12:27:49;3.73;;;3.43;;
44456;SDS011;30159;49.316;8.558;2023-08-20T12:30:16;3.50;;;3.30;;
44456;SDS011;30159;49.316;8.558;2023-08-20T12:32:43;3.87;;;3.63;;
44456;SDS011;30159;49.316;8.558;2023-08-20T12:35:11;4.03;;;3.83;;
44456;SDS011;30159;49.316;8.558;2023-08-20T12:37:38;3.90;;;3.60;;
44456;SDS011;30159;49.316;8.558;2023-08-20T12:40:05;3.60;;;3.40;;
44456;SDS011;30159;49.316;8.558;2023-08-20T12:42:35;4.53;;;3.37;;
44456;SDS011;30159;49.316;8.558;2023-08-20T12:45:03;3.80;;;3.43;;
44456;SDS011;30159;49.316;8.558;2023-08-20T12:47:30;3.77;;;3.47;;
44456;SDS011;30159;49.316;8.558;2023-08-20T12:49:56;3.80;;;3.50;;
44456;SDS011;30159;49.316;8.558;2023-08-20T12:52:24;3.20;;;3.00;;
44456;SDS011;30159;49.316;8.558;2023-08-20T12:54:51;3.57;;;3.37;;
44456;SDS011;30159;49.316;8.558;2023-08-20T12:57:18;4.43;;;3.93;;
44456;SDS011;30159;49.316;8.558;2023-08-20T12:59:44;3.60;;;3.30;;
44456;SDS011;30159;49.316;8.558;2023-08-20T13:02:11;3.07;;;2.77;;
44456;SDS011;30159;49.316;8.558;2023-08-20T13:04:37;3.43;;;3.23;;
44456;SDS011;30159;49.316;8.558;2023-08-20T13:07:04;3.27;;;3.07;;
44456;SDS011;30159;49.316;8.558;2023-08-20T13:09:33;3.50;;;3.20;;
44456;SDS011;30159;49.316;8.558;2023-08-20T13:12:00;3.73;;;3.43;;
44456;SDS011;30159;49.316;8.558;2023-08-20T13:14:29;6.43;;;3.33;;
44456;SDS011;30159;49.316;8.558;2023-08-20T13:16:56;3.60;;;3.40;;
44456;SDS011;30159;49.316;8.558;2023-08-20T13:19:23;3.20;;;3.00;;
44456;SDS011;30159;49.316;8.558;2023-08-20T13:21:49;3.60;;;3.40;;
44456;SDS011;30159;49.316;8.558;2023-08-20T13:24:16;3.20;;;3.00;;
44456;SDS011;30159;49.316;8.558;2023-08-20T13:26:44;3.80;;;3.37;;
44456;SDS011;30159;49.316;8.558;2023-08-20T13:29:10;5.17;;;4.67;;
44456;SDS011;30159;49.316;8.558;2023-08-20T13:31:37;3.30;;;3.00;;
44456;SDS011;30159;49.316;8.558;2023-08-20T13:34:04;3.00;;;2.80;;
44456;SDS011;30159;49.316;8.558;2023-08-20T13:36:30;3.07;;;2.87;;
44456;SDS011;30159;49.316;8.558;2023-08-20T13:38:57;3.00;;;2.80;;
44456;SDS011;30159;49.316;8.558;2023-08-20T13:41:23;3.43;;;3.23;;
44456;SDS011;30159;49.316;8.558;2023-08-20T13:43:51;3.43;;;3.20;;
44456;SDS011;30159;49.316;8.558;2023-08-20T13:46:18;3.73;;;3.53;;
44456;SDS011;30159;49.316;8.558;2023-08-20T13:48:45;3.33;;;3.13;;
44456;SDS011;30159;49.316;8.558;2023-08-20T13:51:12;3.20;;;3.00;;
44456;SDS011;30159;49.316;8.558;2023-08-20T13:53:40;4.13;;;3.27;;
44456;SDS011;30159;49.316;8.558;2023-08-20T13:56:06;3.57;;;3.37;;
44456;SDS011;30159;49.316;8.558;2023-08-20T13:58:33;3.03;;;2.93;;
44456;SDS011;30159;49.316;8.558;2023-08-20T14:01:01;3.40;;;3.20;;
44456;SDS011;30159;49.316;8.558;2023-08-20T14:03:28;4.43;;;3.57;;
44456;SDS011;30159;49.316;8.558;2023-08-20T14:05:54;3.03;;;2.83;;
44456;SDS011;30159;49.316;8.558;2023-08-20T14:08:21;3.70;;;3.50;;
44456;SDS011;30159;49.316;8.558;2023-08-20T14:10:47;3.80;;;3.50;;
44456;SDS011;30159;49.316;8.558;2023-08-20T14:13:14;4.07;;;3.87;;
44456;SDS011;30159;49.316;8.558;2023-08-20T14:15:40;3.57;;;3.37;;
44456;SDS011;30159;49.316;8.558;2023-08-20T14:18:08;4.47;;;4.27;;
44456;SDS011;30159;49.316;8.558;2023-08-20T14:20:35;6.70;;;3.33;;
44456;SDS011;30159;49.316;8.558;2023-08-20T14:23:01;3.53;;;3.23;;
44456;SDS011;30159;49.316;8.558;2023-08-20T14:25:28;4.27;;;4.07;;
44456;SDS011;30159;49.316;8.558;2023-08-20T14:27:55;3.70;;;3.40;;
44456;SDS011;30159;49.316;8.558;2023-08-20T14:30:21;4.00;;;3.53;;
44456;SDS011;30159;49.316;8.558;2023-08-20T14:32:48;4.10;;;3.90;;
44456;SDS011;30159;49.316;8.558;2023-08-20T14:35:16;3.43;;;3.23;;
44456;SDS011;30159;49.316;8.558;2023-08-20T14:37:43;4.30;;;3.63;;
44456;SDS011;30159;49.316;8.558;2023-08-20T14:40:10;3.37;;;3.17;;
44456;SDS011;30159;49.316;8.558;2023-08-20T14:42:37;2.90;;;2.70;;
44456;SDS011;30159;49.316;8.558;2023-08-20T14:45:05;3.83;;;3.63;;
44456;SDS011;30159;49.316;8.558;2023-08-20T14:47:32;3.57;;;3.30;;
44456;SDS011;30159;49.316;8.558;2023-08-20T14:49:58;3.60;;;3.40;;
44456;SDS011;30159;49.316;8.558;2023-08-20T14:52:26;3.80;;;3.60;;